Time;durP1;ratioP1;P1;durP2;ratioP2;P2;SDS_P1;SDS_P2;PMS_P1;PMS_P2;Temp;Humidity;BMP_temperature;BMP_pressure;BME280_temperature;BME280_humidity;BME280_pressure;Samples;Min_cycle;Max_cycle;Signal;HPM_P1;HPM_P2
2022/09/30 00:01:46;;;;;;;8.35;7.57;;;;;;;15.44;85.23;94598.31;5075978;28;20589;-72
2022/09/30 00:04:17;;;;;;;10.10;9.10;;;;;;;15.48;85.33;94601.88;5076967;28;20181;-72
2022/09/30 00:06:44;;;;;;;11.00;9.15;;;;;;;15.46;85.40;94591.16;5076666;28;20276;-72
2022/09/30 00:09:11;;;;;;;10.48;9.48;;;;;;;15.46;86.15;94587.59;5076592;28;20193;-72
2022/09/30 00:11:41;;;;;;;11.73;10.50;;;;;;;15.47;86.16;94592.75;5076529;28;20635;-72
2022/09/30 00:14:10;;;;;;;12.43;9.70;;;;;;;15.48;86.06;94591.56;5076670;28;20264;-72
2022/09/30 00:16:37;;;;;;;9.55;8.52;;;;;;;15.46;85.54;94584.81;5076440;28;20207;-72
2022/09/30 00:19:05;;;;;;;9.90;8.90;;;;;;;15.41;84.83;94586.78;5075563;28;20204;-72
2022/09/30 00:21:34;;;;;;;10.30;9.20;;;;;;;15.40;84.97;94587.19;5076236;28;20201;-72
2022/09/30 00:24:01;;;;;;;10.13;9.13;;;;;;;15.37;84.58;94601.88;5076440;28;20189;-72
2022/09/30 00:26:28;;;;;;;13.35;10.32;;;;;;;15.37;84.72;94593.53;5075982;28;20196;-72
2022/09/30 00:28:56;;;;;;;10.55;9.45;;;;;;;15.39;84.74;94600.28;5075124;28;20268;-72
2022/09/30 00:31:25;;;;;;;9.48;8.50;;;;;;;15.39;84.45;94600.28;5108290;28;20219;-72
2022/09/30 00:36:48;;;;;;;10.13;9.23;;;;;;;15.33;84.13;94601.09;5113850;27;20573;-72
2022/09/30 00:39:17;;;;;;;9.75;8.75;;;;;;;15.29;84.07;94601.06;5112269;28;20278;-72
2022/09/30 00:41:45;;;;;;;9.68;8.60;;;;;;;15.26;84.29;94587.19;5111853;28;20624;-72
2022/09/30 00:44:44;;;;;;;9.68;8.68;;;;;;;15.25;83.94;94594.72;5146705;27;20283;-73
2022/09/30 00:47:38;;;;;;;8.93;8.05;;;;;;;15.24;84.59;94592.31;5112088;28;20295;-73
2022/09/30 00:50:13;;;;;;;9.15;8.20;;;;;;;15.20;84.14;94589.53;5112070;28;20240;-73
2022/09/30 00:52:42;;;;;;;9.48;8.20;;;;;;;15.19;84.00;94587.16;5112261;28;20187;-72
2022/09/30 00:55:13;;;;;;;8.80;8.00;;;;;;;15.15;84.04;94592.72;5111828;28;20222;-72
2022/09/30 00:57:40;;;;;;;8.90;7.85;;;;;;;15.10;83.53;94593.88;5112529;28;20176;-72
2022/09/30 01:00:08;;;;;;;9.05;8.18;;;;;;;15.06;84.00;94590.28;5146548;27;20196;-72
2022/09/30 01:02:35;;;;;;;9.32;8.45;;;;;;;15.04;83.86;94587.13;5111876;28;20595;-72
2022/09/30 01:05:02;;;;;;;10.70;9.60;;;;;;;14.99;83.71;94584.72;5111706;28;20192;-72
2022/09/30 01:07:29;;;;;;;10.60;9.27;;;;;;;14.95;83.05;94589.47;5112287;28;20206;-72
2022/09/30 01:09:58;;;;;;;9.85;8.85;;;;;;;14.90;83.23;94590.66;5112431;28;20189;-72
2022/09/30 01:12:25;;;;;;;9.40;8.50;;;;;;;14.90;83.44;94587.09;5112709;28;20198;-72
2022/09/30 01:14:53;;;;;;;10.50;8.23;;;;;;;14.88;83.65;94587.47;5094574;28;20212;-72
2022/09/30 01:17:33;;;;;;;9.55;7.90;;;;;;;14.82;83.64;94580.72;5111576;28;20542;-72
2022/09/30 01:20:25;;;;;;;7.18;5.97;;;;;;;14.85;84.10;94591.06;5111664;28;20298;-72
2022/09/30 01:23:02;;;;;;;9.80;7.55;;;;;;;14.88;84.13;94597.78;5111419;28;20195;-72
2022/09/30 01:25:53;;;;;;;8.93;8.02;;;;;;;14.87;83.93;94610.09;5111970;27;20192;-72
2022/09/30 01:28:48;;;;;;;10.38;7.10;;;;;;;14.86;84.16;94602.94;5112366;28;20199;-72
2022/09/30 01:31:26;;;;;;;8.52;7.72;;;;;;;14.82;83.87;94594.59;5112198;28;20186;-72
2022/09/30 01:33:58;;;;;;;9.10;7.63;;;;;;;14.77;83.49;94597.75;5112273;28;20172;-72
2022/09/30 01:36:33;;;;;;;9.43;7.80;;;;;;;14.76;83.24;94598.16;5111124;28;20227;-72
2022/09/30 01:39:07;;;;;;;7.85;7.05;;;;;;;14.75;83.19;94597.34;5111047;28;20195;-72
2022/09/30 01:41:42;;;;;;;8.23;6.85;;;;;;;14.74;83.44;94597.72;5145816;27;20207;-72
2022/09/30 01:44:13;;;;;;;8.73;7.43;;;;;;;14.70;83.71;94606.03;5111845;28;20254;-72
2022/09/30 01:46:43;;;;;;;8.20;6.68;;;;;;;14.68;84.02;94602.88;5106516;28;20181;-72
2022/09/30 01:49:14;;;;;;;7.60;6.80;;;;;;;14.67;84.03;94602.09;5097858;28;20219;-72
2022/09/30 01:51:44;;;;;;;8.23;7.53;;;;;;;14.67;84.03;94606.84;5131719;27;20203;-72
2022/09/30 01:54:15;;;;;;;8.75;6.68;;;;;;;14.65;83.93;94601.69;5097942;28;20181;-72
2022/09/30 01:56:44;;;;;;;9.52;7.70;;;;;;;14.64;83.68;94608.41;5097705;28;20211;-72
2022/09/30 01:59:15;;;;;;;7.93;6.88;;;;;;;14.63;83.73;94612.38;5098107;28;20184;-72
2022/09/30 02:01:48;;;;;;;7.13;6.50;;;;;;;14.63;84.16;94611.56;5097284;28;20192;-72
2022/09/30 02:04:18;;;;;;;7.78;6.97;;;;;;;14.62;84.34;94608.00;5097260;28;20207;-72
2022/09/30 02:06:48;;;;;;;8.07;6.90;;;;;;;14.58;84.12;94601.66;5096662;28;20639;-72
2022/09/30 02:09:19;;;;;;;7.85;7.05;;;;;;;14.59;84.51;94606.00;5096971;28;20191;-72
2022/09/30 02:11:46;;;;;;;9.43;7.28;;;;;;;14.58;84.60;94603.63;5096602;28;20192;-72
2022/09/30 02:14:17;;;;;;;8.40;7.50;;;;;;;14.55;84.46;94609.94;5096601;28;20198;-72
2022/09/30 02:16:48;;;;;;;9.75;7.68;;;;;;;14.56;84.82;94615.13;5097411;28;20219;-72
2022/09/30 02:19:19;;;;;;;7.30;6.53;;;;;;;14.57;84.32;94610.38;5130972;27;20200;-72
2022/09/30 02:21:55;;;;;;;8.00;7.20;;;;;;;14.53;84.12;94615.91;5130747;27;20200;-72
2022/09/30 02:24:24;;;;;;;8.75;7.68;;;;;;;14.53;84.34;94617.88;5096961;28;20274;-72
2022/09/30 02:26:55;;;;;;;8.68;7.78;;;;;;;14.51;84.24;94623.81;5096695;28;20199;-72
2022/09/30 02:29:26;;;;;;;9.63;7.30;;;;;;;14.51;84.21;94625.78;5096762;28;20192;-72
2022/09/30 02:31:59;;;;;;;7.03;6.30;;;;;;;14.48;83.78;94618.22;5096892;28;20200;-72
2022/09/30 02:34:31;;;;;;;7.72;6.57;;;;;;;14.45;83.32;94620.59;5096878;28;20619;-72
2022/09/30 02:37:00;;;;;;;7.72;6.97;;;;;;;14.41;83.33;94616.97;5096002;28;20212;-73
2022/09/30 02:39:48;;;;;;;9.02;8.23;;;;;;;14.41;83.42;94618.97;5097295;28;20190;-72
2022/09/30 02:42:19;;;;;;;8.00;7.05;;;;;;;14.40;82.94;94620.94;5097360;28;20218;-73
2022/09/30 02:44:47;;;;;;;9.18;6.90;;;;;;;14.36;83.10;94614.59;5097338;28;20181;-73
2022/09/30 02:47:21;;;;;;;7.68;6.43;;;;;;;14.32;82.68;94602.69;5096893;28;20198;-72
2022/09/30 02:49:50;;;;;;;7.35;6.53;;;;;;;14.27;82.62;94608.59;5097193;28;20199;-73
2022/09/30 02:52:24;;;;;;;7.43;6.72;;;;;;;14.25;83.10;94613.75;5097144;28;20177;-73
2022/09/30 02:55:05;;;;;;;7.68;7.05;;;;;;;14.23;83.23;94620.84;5097101;28;20184;-72
2022/09/30 02:57:37;;;;;;;8.68;7.30;;;;;;;14.20;83.33;94623.22;5130276;27;20188;-72
2022/09/30 03:00:05;;;;;;;9.15;6.55;;;;;;;14.17;82.91;94618.44;5095426;28;20184;-73
2022/09/30 03:02:33;;;;;;;9.13;7.03;;;;;;;14.15;82.98;94629.13;5096595;28;20203;-73
2022/09/30 03:05:00;;;;;;;8.00;7.20;;;;;;;14.14;83.05;94626.75;5096732;28;20188;-73
2022/09/30 03:07:27;;;;;;;9.27;8.27;;;;;;;14.14;82.91;94635.06;5096957;28;20192;-73
2022/09/30 03:09:56;;;;;;;9.13;8.23;;;;;;;14.13;83.35;94642.59;5096243;28;20185;-72
2022/09/30 03:12:35;;;;;;;11.82;10.52;;;;;;;14.16;83.68;94647.38;5096859;28;20181;-73
2022/09/30 03:15:16;;;;;;;12.02;10.40;;;;;;;14.20;84.17;94637.09;5095603;28;20278;-73
2022/09/30 03:17:59;;;;;;;14.10;11.18;;;;;;;14.23;84.21;94646.59;5095907;28;20583;-73
2022/09/30 03:20:36;;;;;;;13.35;10.13;;;;;;;14.22;84.59;94642.25;5095294;28;20193;-73
2022/09/30 03:23:19;;;;;;;11.57;10.45;;;;;;;14.23;84.73;94638.28;5095166;28;20663;-73
2022/09/30 03:25:54;;;;;;;14.43;10.85;;;;;;;14.24;84.94;94639.88;5096378;28;20199;-73
2022/09/30 03:28:26;;;;;;;11.25;9.90;;;;;;;14.26;85.01;94628.41;5096136;28;20172;-72
2022/09/30 03:31:00;;;;;;;12.85;10.98;;;;;;;14.27;85.12;94639.13;5094978;28;20660;-72
2022/09/30 03:33:39;;;;;;;12.75;10.18;;;;;;;14.30;85.17;94638.31;5096202;28;20197;-73
2022/09/30 03:36:08;;;;;;;12.23;10.07;;;;;;;14.32;85.52;94643.50;5095605;28;20236;-73
2022/09/30 03:38:45;;;;;;;12.38;9.98;;;;;;;14.29;85.52;94641.50;5095883;28;20188;-73
2022/09/30 03:41:19;;;;;;;12.82;10.85;;;;;;;14.27;85.42;94635.53;5095208;28;20203;-72
2022/09/30 03:43:49;;;;;;;12.55;11.20;;;;;;;14.28;85.77;94637.94;5095446;28;20200;-73
2022/09/30 03:46:21;;;;;;;14.07;11.00;;;;;;;14.27;85.98;94647.44;5095149;28;20608;-73
2022/09/30 03:48:53;;;;;;;12.32;10.25;;;;;;;14.28;86.19;94660.13;5095723;28;20180;-72
2022/09/30 03:51:20;;;;;;;12.43;10.50;;;;;;;14.30;86.35;94668.84;5095625;28;20192;-72
2022/09/30 03:53:47;;;;;;;12.68;10.68;;;;;;;14.33;86.35;94670.06;5095832;28;20188;-73
2022/09/30 03:56:14;;;;;;;15.35;10.80;;;;;;;14.33;86.62;94659.75;5095788;28;20216;-73
2022/09/30 03:58:44;;;;;;;13.60;11.38;;;;;;;14.30;86.70;94663.28;5095072;28;20195;-73
2022/09/30 04:01:20;;;;;;;13.40;11.60;;;;;;;14.30;87.25;94666.06;5094480;28;20232;-74
2022/09/30 04:03:47;;;;;;;14.93;11.80;;;;;;;14.31;87.21;94666.88;5095808;28;20188;-74
2022/09/30 04:06:15;;;;;;;14.43;11.68;;;;;;;14.33;87.21;94664.50;5094887;28;20192;-74
2022/09/30 04:08:42;;;;;;;11.30;10.20;;;;;;;14.32;87.22;94657.38;5094489;28;20200;-73
2022/09/30 04:11:09;;;;;;;13.52;11.63;;;;;;;14.30;87.21;94660.50;5094408;28;20196;-74
2022/09/30 04:13:36;;;;;;;12.52;10.90;;;;;;;14.31;87.71;94664.09;5095211;28;20565;-74
2022/09/30 04:16:03;;;;;;;12.98;11.55;;;;;;;14.27;87.66;94666.03;5094977;28;20231;-73
2022/09/30 04:18:30;;;;;;;11.82;10.52;;;;;;;14.26;87.80;94668.03;5094684;28;20205;-72
2022/09/30 04:20:57;;;;;;;13.80;10.35;;;;;;;14.22;87.72;94656.09;5095170;28;20181;-73
2022/09/30 04:23:26;;;;;;;12.55;10.32;;;;;;;14.23;88.21;94656.91;5095669;28;20196;-73
2022/09/30 04:25:53;;;;;;;11.30;9.40;;;;;;;14.20;87.96;94645.41;5095167;28;20181;-73
2022/09/30 04:28:20;;;;;;;11.63;10.15;;;;;;;14.21;87.80;94665.63;5095226;28;20227;-73
2022/09/30 04:30:47;;;;;;;10.48;8.93;;;;;;;14.21;88.18;94671.97;5094566;28;20200;-73
2022/09/30 04:33:13;;;;;;;10.77;9.38;;;;;;;14.21;88.04;94671.97;5095165;28;20195;-73
2022/09/30 04:35:40;;;;;;;12.88;9.52;;;;;;;14.23;87.98;94685.44;5094967;28;20675;-73
2022/09/30 04:38:07;;;;;;;11.43;9.35;;;;;;;14.24;88.13;94673.19;5094463;28;20207;-73
2022/09/30 04:40:38;;;;;;;11.60;9.27;;;;;;;14.23;87.88;94684.63;5095042;28;20188;-73
2022/09/30 04:43:04;;;;;;;10.50;9.13;;;;;;;14.22;88.16;94683.84;5094997;28;20597;-73
2022/09/30 04:45:31;;;;;;;12.75;10.05;;;;;;;14.25;88.37;94685.84;5095274;28;20207;-73
2022/09/30 04:47:58;;;;;;;9.80;8.43;;;;;;;14.26;88.18;94695.75;5094210;28;20196;-73
2022/09/30 04:50:25;;;;;;;9.50;8.40;;;;;;;14.28;88.14;94684.28;5094424;28;20200;-73
2022/09/30 04:52:52;;;;;;;11.65;10.00;;;;;;;14.31;88.14;94708.50;5094292;28;20202;-73
2022/09/30 04:55:18;;;;;;;11.20;9.70;;;;;;;14.28;87.91;94704.50;5094170;28;20200;-73
2022/09/30 04:57:47;;;;;;;13.40;11.13;;;;;;;14.29;87.94;94719.16;5094283;28;20213;-73
2022/09/30 05:00:13;;;;;;;12.00;9.45;;;;;;;14.32;87.97;94716.41;5094948;28;20204;-73
2022/09/30 05:02:43;;;;;;;10.73;9.10;;;;;;;14.34;87.62;94710.47;5094137;28;20199;-72
2022/09/30 05:05:10;;;;;;;11.30;9.32;;;;;;;14.37;87.58;94707.72;5094665;28;20571;-72
2022/09/30 05:07:37;;;;;;;10.55;9.07;;;;;;;14.36;87.18;94716.44;5094686;28;20192;-72
2022/09/30 05:10:06;;;;;;;11.77;9.07;;;;;;;14.32;87.47;94708.09;5093765;28;20192;-72
2022/09/30 05:12:33;;;;;;;12.02;9.35;;;;;;;14.33;87.12;94717.22;5094346;28;20197;-71
2022/09/30 05:15:01;;;;;;;10.75;9.48;;;;;;;14.33;87.29;94722.75;5094617;28;20527;-71
2022/09/30 05:17:30;;;;;;;10.40;9.30;;;;;;;14.31;87.19;94737.03;5094547;28;20216;-71
2022/09/30 05:19:56;;;;;;;11.65;9.77;;;;;;;14.32;87.43;94738.63;5094588;28;20184;-71
2022/09/30 05:22:24;;;;;;;13.50;10.35;;;;;;;14.35;87.67;94726.75;5095921;28;20624;-71
2022/09/30 05:24:51;;;;;;;12.40;10.00;;;;;;;14.37;87.44;94729.91;5098428;28;20219;-71
2022/09/30 05:27:18;;;;;;;11.02;9.52;;;;;;;14.39;87.53;94727.56;5099090;28;20226;-71
2022/09/30 05:29:45;;;;;;;11.25;9.98;;;;;;;14.41;87.77;94727.16;5098273;28;20197;-71
2022/09/30 05:32:13;;;;;;;13.50;10.82;;;;;;;14.42;87.45;94729.56;5097639;28;20188;-71
2022/09/30 05:34:40;;;;;;;13.48;10.50;;;;;;;14.42;87.43;94742.66;5097536;28;20232;-71
2022/09/30 05:37:08;;;;;;;12.85;10.75;;;;;;;14.44;87.40;94752.16;5098314;28;20224;-70
2022/09/30 05:39:35;;;;;;;13.27;10.60;;;;;;;14.41;87.33;94747.38;5097850;28;20185;-71
2022/09/30 05:42:02;;;;;;;14.40;10.98;;;;;;;14.44;87.89;94754.94;5098176;28;20185;-71
2022/09/30 05:44:29;;;;;;;12.88;10.40;;;;;;;14.48;87.83;94752.19;5098119;28;20199;-71
2022/09/30 05:46:56;;;;;;;13.57;10.88;;;;;;;14.52;87.76;94752.25;5098346;28;20191;-71
2022/09/30 05:49:25;;;;;;;13.70;11.10;;;;;;;14.52;88.01;94758.59;5097953;28;20192;-71
2022/09/30 05:51:52;;;;;;;13.68;11.23;;;;;;;14.59;87.99;94752.31;5097123;28;20536;-71
2022/09/30 05:54:19;;;;;;;13.27;10.98;;;;;;;14.65;87.68;94756.31;5097505;28;20196;-71
2022/09/30 05:56:45;;;;;;;15.38;12.35;;;;;;;14.69;87.84;94755.16;5097363;28;20224;-71
2022/09/30 05:59:12;;;;;;;46.63;24.65;;;;;;;14.71;88.17;94765.09;5098031;28;20196;-71
2022/09/30 06:01:39;;;;;;;43.42;24.23;;;;;;;14.71;88.28;94765.09;5098033;28;20195;-71
2022/09/30 06:04:05;;;;;;;22.35;15.10;;;;;;;14.72;88.21;94766.66;5097072;28;20219;-71
2022/09/30 06:06:34;;;;;;;18.30;13.55;;;;;;;14.70;88.10;94764.25;5096817;28;20193;-71
2022/09/30 06:09:00;;;;;;;15.32;12.60;;;;;;;14.71;88.19;94762.31;5096944;28;20218;-70
2022/09/30 06:11:27;;;;;;;14.82;12.32;;;;;;;14.73;88.46;94765.47;5098022;28;20200;-71
2022/09/30 06:13:55;;;;;;;16.38;13.23;;;;;;;14.85;87.95;94754.88;5097883;28;20193;-70
2022/09/30 06:16:22;;;;;;;20.88;14.40;;;;;;;14.88;88.52;94765.16;5096565;28;20288;-71
2022/09/30 06:18:49;;;;;;;16.65;14.20;;;;;;;14.97;87.86;94758.50;5097381;28;20569;-71
2022/09/30 06:21:18;;;;;;;18.33;14.63;;;;;;;14.96;87.89;94773.53;5097366;28;20181;-70
2022/09/30 06:23:46;;;;;;;17.48;14.40;;;;;;;14.95;87.97;94778.31;5097593;28;20238;-70
2022/09/30 06:26:14;;;;;;;19.77;15.73;;;;;;;14.96;88.29;94781.88;5097432;28;20192;-70
2022/09/30 06:28:41;;;;;;;21.17;16.42;;;;;;;14.96;88.75;94787.44;5097595;28;20219;-70
2022/09/30 06:31:08;;;;;;;20.92;16.55;;;;;;;14.95;88.50;94783.06;5096451;28;20192;-70
2022/09/30 06:33:34;;;;;;;25.92;18.27;;;;;;;14.95;88.63;94794.97;5096957;28;20654;-70
2022/09/30 06:36:03;;;;;;;23.85;17.80;;;;;;;14.97;89.03;94800.94;5096213;28;20232;-71
2022/09/30 06:38:31;;;;;;;20.83;14.68;;;;;;;15.01;88.95;94806.50;5096779;28;20307;-70
2022/09/30 06:41:00;;;;;;;22.98;17.70;;;;;;;15.19;87.93;94801.06;5097135;28;20191;-71
2022/09/30 06:43:27;;;;;;;26.52;18.77;;;;;;;15.22;87.72;94800.28;5096400;28;20222;-71
2022/09/30 06:45:54;;;;;;;21.42;15.55;;;;;;;15.25;87.80;94805.88;5096503;28;20200;-71
2022/09/30 06:48:21;;;;;;;25.77;18.40;;;;;;;15.29;87.63;94806.69;5097323;28;20185;-71
2022/09/30 06:50:52;;;;;;;24.50;18.52;;;;;;;15.27;87.87;94820.16;5097095;28;20185;-71
2022/09/30 06:53:19;;;;;;;21.58;17.13;;;;;;;15.29;87.94;94825.34;5095900;28;20200;-71
2022/09/30 06:55:46;;;;;;;30.40;19.55;;;;;;;15.45;86.44;94839.69;5096787;28;20643;-70
2022/09/30 06:58:15;;;;;;;22.27;16.77;;;;;;;15.49;86.08;94831.38;5095999;28;20216;-71
2022/09/30 07:00:42;;;;;;;22.10;17.63;;;;;;;15.64;84.84;94839.38;5095928;28;20203;-70
2022/09/30 07:03:22;;;;;;;29.42;21.00;;;;;;;15.67;85.32;94843.38;5096500;28;20184;-71
2022/09/30 07:05:56;;;;;;;25.48;18.58;;;;;;;15.73;84.32;94827.13;5097480;28;20192;-68
2022/09/30 07:08:24;;;;;;;26.58;20.73;;;;;;;15.66;85.10;94832.66;5095725;28;20279;-71
2022/09/30 07:10:51;;;;;;;28.10;21.00;;;;;;;15.57;85.68;94839.34;5096101;28;20207;-72
2022/09/30 07:13:19;;;;;;;26.92;20.65;;;;;;;15.54;86.27;94844.88;5096521;28;20200;-70
2022/09/30 07:15:46;;;;;;;30.63;22.73;;;;;;;15.50;86.28;94846.84;5095975;28;20200;-71
2022/09/30 07:18:13;;;;;;;31.27;23.55;;;;;;;15.52;86.59;94844.50;5095981;28;20216;-70
2022/09/30 07:20:40;;;;;;;35.28;23.35;;;;;;;15.54;87.01;94853.22;5095905;28;20196;-72
2022/09/30 07:23:08;;;;;;;30.90;21.77;;;;;;;15.56;86.72;94850.84;5096594;28;20220;-71
2022/09/30 07:25:35;;;;;;;36.33;25.40;;;;;;;15.67;86.77;94862.06;5095828;28;20287;-71
2022/09/30 07:28:02;;;;;;;34.47;23.05;;;;;;;15.69;86.08;94857.72;5096611;28;20185;-71
2022/09/30 07:30:30;;;;;;;34.60;24.63;;;;;;;15.70;86.75;94861.28;5096176;28;20590;-72
2022/09/30 07:32:57;;;;;;;35.40;24.52;;;;;;;15.68;86.54;94861.66;5095336;28;20217;-71
2022/09/30 07:35:24;;;;;;;36.67;24.88;;;;;;;15.70;86.25;94866.84;5095337;28;20285;-71
2022/09/30 07:37:50;;;;;;;36.92;25.63;;;;;;;15.73;86.54;94861.28;5096175;28;20201;-72
2022/09/30 07:40:17;;;;;;;34.40;23.48;;;;;;;15.75;87.16;94861.69;5094965;28;20203;-71
2022/09/30 07:42:44;;;;;;;32.70;23.83;;;;;;;15.78;86.62;94858.13;5095930;28;20184;-71
2022/09/30 07:45:18;;;;;;;37.05;26.15;;;;;;;15.85;87.12;94868.47;5095510;28;20180;-72
2022/09/30 07:47:48;;;;;;;34.70;25.30;;;;;;;15.89;86.99;94869.28;5096104;28;20292;-72
2022/09/30 07:50:16;;;;;;;34.40;23.23;;;;;;;15.96;86.86;94860.97;5095005;28;20207;-72
2022/09/30 07:52:42;;;;;;;28.45;21.27;;;;;;;16.13;85.56;94862.22;5096053;28;20193;-72
2022/09/30 07:55:09;;;;;;;34.92;24.13;;;;;;;16.40;85.16;94865.44;5095791;28;20201;-72
2022/09/30 07:57:36;;;;;;;31.45;23.08;;;;;;;16.55;84.41;94853.13;5095745;28;20269;-72
2022/09/30 08:00:06;;;;;;;30.30;22.73;;;;;;;16.71;83.39;94861.09;5095926;28;20196;-72
2022/09/30 08:02:32;;;;;;;27.95;21.35;;;;;;;16.84;82.26;94867.88;5095172;28;20268;-72
2022/09/30 08:05:01;;;;;;;27.38;20.52;;;;;;;17.00;81.75;94875.06;5094901;28;20203;-73
2022/09/30 08:07:28;;;;;;;29.63;20.33;;;;;;;17.06;82.75;94876.22;5096188;28;20203;-73
2022/09/30 08:09:54;;;;;;;28.30;20.05;;;;;;;17.11;82.37;94873.06;5095799;28;20200;-71
2022/09/30 08:12:21;;;;;;;27.50;21.88;;;;;;;17.18;83.10;94881.41;5095865;28;20185;-73
2022/09/30 08:14:48;;;;;;;31.08;21.77;;;;;;;17.29;83.67;94879.41;5094756;28;20215;-73
2022/09/30 08:17:15;;;;;;;30.00;21.10;;;;;;;17.38;83.03;94883.75;5095595;28;20211;-72
2022/09/30 08:19:43;;;;;;;27.70;21.85;;;;;;;17.44;81.54;94882.97;5095468;28;20188;-72
2022/09/30 08:22:12;;;;;;;30.70;21.08;;;;;;;17.51;81.21;94874.56;5095594;28;20525;-72
2022/09/30 08:24:39;;;;;;;29.35;22.00;;;;;;;17.58;81.44;94890.50;5094583;28;20192;-72
2022/09/30 08:27:06;;;;;;;29.13;21.85;;;;;;;17.69;81.89;94891.25;5095405;28;20181;-73
2022/09/30 08:29:33;;;;;;;29.83;20.52;;;;;;;17.86;81.73;94884.03;5095011;28;20197;-73
2022/09/30 08:32:00;;;;;;;27.08;20.30;;;;;;;17.95;80.32;94886.41;5094693;28;20215;-72
2022/09/30 08:34:32;;;;;;;28.48;21.40;;;;;;;18.01;80.65;94896.75;5094841;28;20525;-73
2022/09/30 08:36:59;;;;;;;26.67;19.38;;;;;;;18.12;80.61;94895.91;5095216;28;20196;-72
2022/09/30 08:39:28;;;;;;;28.10;19.38;;;;;;;18.26;80.64;94898.63;5094835;28;20200;-72
2022/09/30 08:42:05;;;;;;;24.63;18.58;;;;;;;18.35;78.58;94895.41;5094970;28;20203;-72
2022/09/30 08:44:42;;;;;;;24.77;17.45;;;;;;;18.47;78.15;94892.13;5095505;28;20184;-72
2022/09/30 08:47:17;;;;;;;22.50;17.05;;;;;;;18.63;78.66;94900.03;5095421;28;20219;-72
2022/09/30 08:49:50;;;;;;;24.63;18.88;;;;;;;18.72;76.63;94901.16;5094822;28;20200;-72
2022/09/30 08:52:20;;;;;;;20.63;16.38;;;;;;;18.82;77.53;94885.53;5094728;28;20196;-72
2022/09/30 08:54:50;;;;;;;22.42;17.13;;;;;;;18.93;76.54;94893.84;5095452;28;20185;-72
2022/09/30 08:57:18;;;;;;;22.10;16.98;;;;;;;19.02;75.36;94887.78;5096287;28;20216;-72
2022/09/30 08:59:46;;;;;;;18.25;15.95;;;;;;;19.09;75.31;94898.91;5098783;28;20192;-72
2022/09/30 09:02:19;;;;;;;19.83;15.50;;;;;;;19.19;75.26;94900.81;5099220;28;20184;-71
2022/09/30 09:04:46;;;;;;;20.27;16.63;;;;;;;19.27;74.71;94898.75;5098715;28;20196;-72
2022/09/30 09:07:27;;;;;;;18.02;15.10;;;;;;;19.37;74.25;94898.66;5098335;28;20596;-72
2022/09/30 09:10:04;;;;;;;19.55;15.20;;;;;;;19.55;75.34;94909.66;5098711;28;20539;-72
2022/09/30 09:12:39;;;;;;;20.95;17.50;;;;;;;19.62;74.43;94903.22;5099087;28;20200;-72
2022/09/30 09:15:22;;;;;;;25.45;17.98;;;;;;;19.67;73.96;94897.97;5098932;28;20194;-73
2022/09/30 09:18:15;;;;;;;23.23;15.68;;;;;;;19.81;74.56;94907.44;5098118;28;20216;-72
2022/09/30 09:20:47;;;;;;;18.50;14.93;;;;;;;19.92;74.04;94911.69;5098432;28;20196;-72
2022/09/30 09:23:14;;;;;;;19.63;15.68;;;;;;;20.15;73.75;94911.03;5098039;28;20192;-72
2022/09/30 09:25:45;;;;;;;20.63;15.43;;;;;;;20.29;71.83;94912.84;5098766;28;20196;-72
2022/09/30 09:28:21;;;;;;;19.70;15.20;;;;;;;20.48;73.10;94917.03;5098855;28;20185;-72
2022/09/30 09:30:51;;;;;;;19.25;15.40;;;;;;;20.58;70.27;94915.28;5097744;28;20587;-72
2022/09/30 09:33:20;;;;;;;18.55;14.95;;;;;;;20.64;70.86;94917.22;5097669;28;20200;-72
2022/09/30 09:35:52;;;;;;;15.32;12.40;;;;;;;20.77;67.43;94905.41;5098406;28;20231;-72
2022/09/30 09:38:24;;;;;;;17.17;12.00;;;;;;;20.83;69.59;94904.53;5098110;28;20674;-72
2022/09/30 09:41:03;;;;;;;10.70;9.52;;;;;;;20.90;66.57;94898.81;5098560;28;20184;-72
2022/09/30 09:43:42;;;;;;;13.50;10.57;;;;;;;20.94;67.00;94892.34;5097905;28;20245;-72
2022/09/30 09:46:13;;;;;;;18.70;10.07;;;;;;;20.98;66.14;94907.09;5097494;28;20206;-72
2022/09/30 09:48:40;;;;;;;15.77;12.27;;;;;;;21.21;68.56;94909.16;5097200;28;20196;-72
2022/09/30 09:51:13;;;;;;;13.55;10.23;;;;;;;21.38;63.62;94894.06;5097181;28;20622;-72
2022/09/30 09:53:49;;;;;;;10.95;8.88;;;;;;;21.42;61.98;94891.97;5097583;28;20192;-71
2022/09/30 09:56:19;;;;;;;12.55;10.13;;;;;;;21.53;59.95;94875.78;5081016;28;20196;-72
2022/09/30 09:59:13;;;;;;;8.95;6.32;;;;;;;21.57;59.20;94904.56;5097265;28;20216;-71
2022/09/30 10:01:42;;;;;;;6.90;5.75;;;;;;;21.74;55.50;94897.00;5097479;28;20246;-72
2022/09/30 10:04:16;;;;;;;6.95;5.75;;;;;;;21.90;54.82;94887.13;5098280;28;20499;-72
2022/09/30 10:06:52;;;;;;;6.93;6.20;;;;;;;22.01;55.61;94902.53;5097703;28;20192;-72
2022/09/30 10:09:37;;;;;;;6.82;5.45;;;;;;;22.02;55.10;94887.25;5097534;28;20188;-71
2022/09/30 10:12:28;;;;;;;5.45;4.15;;;;;;;22.05;50.67;94877.19;5097683;28;20196;-71
2022/09/30 10:15:00;;;;;;;6.07;4.75;;;;;;;22.17;53.77;94887.78;5097878;28;20192;-73
2022/09/30 10:17:29;;;;;;;6.38;5.60;;;;;;;22.28;55.34;94887.56;5097802;28;20196;-71
2022/09/30 10:20:00;;;;;;;8.73;6.75;;;;;;;22.46;55.11;94901.22;5097848;28;20201;-72
2022/09/30 10:22:29;;;;;;;6.43;5.80;;;;;;;22.49;53.56;94886.31;5097578;28;20597;-72
2022/09/30 10:25:11;;;;;;;7.75;6.95;;;;;;;22.48;55.14;94893.97;5097367;28;20241;-73
2022/09/30 10:27:47;;;;;;;6.57;5.45;;;;;;;22.47;52.46;94874.72;5096779;28;20196;-72
2022/09/30 10:30:30;;;;;;;5.75;3.78;;;;;;;22.49;51.09;94870.25;5097406;28;20527;-71
2022/09/30 10:32:58;;;;;;;4.72;4.00;;;;;;;22.69;51.12;94880.66;5097322;28;20616;-73
2022/09/30 10:35:25;;;;;;;6.57;4.95;;;;;;;22.91;51.93;94889.38;5097234;28;20247;-72
2022/09/30 10:37:52;;;;;;;5.63;4.93;;;;;;;22.91;50.26;94878.91;5096648;28;20204;-73
2022/09/30 10:40:21;;;;;;;6.60;5.07;;;;;;;22.92;52.16;94882.56;5096644;28;20208;-74
2022/09/30 10:42:50;;;;;;;3.20;2.90;;;;;;;22.95;46.83;94895.75;5096537;28;20249;-73
2022/09/30 10:45:21;;;;;;;3.10;2.90;;;;;;;22.98;45.88;94881.59;5096441;28;20196;-73
2022/09/30 10:47:50;;;;;;;4.20;3.20;;;;;;;22.98;45.91;94875.19;5097321;28;20195;-73
2022/09/30 10:50:20;;;;;;;6.18;4.32;;;;;;;23.02;47.01;94895.56;5096498;28;20192;-73
2022/09/30 10:52:51;;;;;;;3.38;2.75;;;;;;;23.05;45.77;94877.81;5097086;28;20185;-73
2022/09/30 10:55:28;;;;;;;3.25;2.60;;;;;;;23.08;45.70;94884.59;5097093;28;20177;-74
2022/09/30 10:57:59;;;;;;;2.88;2.42;;;;;;;23.15;44.96;94892.88;5097553;28;20219;-73
2022/09/30 11:00:26;;;;;;;3.42;3.00;;;;;;;23.18;46.83;94884.34;5096871;28;20187;-73
2022/09/30 11:02:58;;;;;;;3.72;2.97;;;;;;;23.27;45.02;94890.13;5097002;28;20200;-73
2022/09/30 11:05:28;;;;;;;4.07;3.10;;;;;;;23.41;46.19;94891.78;5097019;28;20193;-73
2022/09/30 11:07:59;;;;;;;3.42;2.58;;;;;;;23.48;43.41;94894.44;5096291;28;20192;-73
2022/09/30 11:10:34;;;;;;;4.32;2.40;;;;;;;23.48;44.45;94899.28;5097027;28;20302;-73
2022/09/30 11:13:06;;;;;;;3.00;2.10;;;;;;;23.48;42.37;94891.63;5096950;28;20184;-73
2022/09/30 11:15:40;;;;;;;2.80;2.22;;;;;;;23.48;42.08;94900.06;5096941;28;20184;-75
2022/09/30 11:18:14;;;;;;;2.40;2.20;;;;;;;23.47;41.08;94887.22;5096145;28;20223;-71
2022/09/30 11:20:44;;;;;;;2.80;2.38;;;;;;;23.48;41.60;94900.06;5094909;28;20200;-71
2022/09/30 11:23:16;;;;;;;4.40;2.40;;;;;;;23.53;43.08;94902.34;5095673;28;20192;-71
2022/09/30 11:25:50;;;;;;;3.40;2.20;;;;;;;23.60;42.90;94894.94;5095279;28;20200;-72
2022/09/30 11:28:31;;;;;;;4.03;2.35;;;;;;;23.58;42.93;94900.25;5096082;28;20601;-70
2022/09/30 11:31:03;;;;;;;3.15;2.42;;;;;;;23.59;41.34;94911.03;5096272;28;20184;-70
2022/09/30 11:33:58;;;;;;;3.20;2.40;;;;;;;23.59;42.87;94887.75;5096362;28;20211;-70
2022/09/30 11:36:31;;;;;;;2.65;2.40;;;;;;;23.64;42.57;94890.00;5092097;28;20236;-70
2022/09/30 11:39:14;;;;;;;2.60;2.35;;;;;;;23.67;41.91;94892.75;5096151;28;20265;-71
2022/09/30 11:41:45;;;;;;;3.08;2.72;;;;;;;23.71;42.61;94898.28;5097545;28;20207;-70
2022/09/30 11:44:22;;;;;;;2.80;2.60;;;;;;;23.78;42.80;94898.94;5097038;28;20184;-71